Kezdőlap
METAR-TAF:

METAR-TAF

Repülőterek :

Recife, Pernambuco, Brazília

földrajzi szélesség: 08-08S, földrajzi hosszúság: 034-55W, magasság: 19 m

Jelenlegi meteorológiai megfigyelések

A jelentés 21 perccel ezelõtt készült, 16:00 UTC
Dél-délkeleti szél 12 kt
Hőmérséklet 30°C
Páratartalom 62%
Légköri nyomás 1011 hPa
Látótávolság 10 km, vagy több
Szórványos felhőzet 2300 lábon

METAR: SBRF 221600Z 15012KT 9999 SCT023 30/22 Q1011

Idő: 13:21 (16:21 UTC)

Előrejelzés

A jelentés 6 órával és 21 perccel ezelõtt készült, 10:00 UTC
Az előrejelzés 22-én 12 óra UTC és 23-én 12 óra UTC között érvényes
Kelet-délkeleti szél 10 kt
Látótávolság: 7000 m
Szórványos felhőzet 2200 lábon
23-én 00 óra UTC és 23-én 02 óra UTC között fokozatosan kialakuló
Kelet-délkeleti szél 5 kt

TAF: SBRF 221000Z 2212/2312 12010KT 7000 SCT022 TX29/2216Z TN25/2308Z BECMG 2300/2302 12005KT RMK PEA

Meteorológiai megfigyelések és előrejelzések több, mint 4000 repülőtéren (METAR és TAF jelentéseket).

A térképen piros és sárga pontok jelzik az elérhető meteorológiai állomásokat.

Mozgassa az egeret a pont fölött, hogy megjelenjen az állomás neve.

Azután kattintson az időjárási megfigyelések és előrejelzések megtekintéséhez.

A térkép megváltoztatása: kattintson a fekete keresztel jelölt zöld gombra ráközelítéshez, a vonallal jelölt zöld gombra távolításhoz, vagy a zöld nyilakra a szomszédos térképek eléréséhez.


METAR-TAF: